createdAt,value
2018-01-29T00:00:25.591Z,1018.37
2018-01-29T00:01:25.626Z,1018.36
2018-01-29T00:02:25.518Z,1018.37
2018-01-29T00:03:25.499Z,1018.34
2018-01-29T00:04:25.450Z,1018.30
2018-01-29T00:05:25.398Z,1018.35
2018-01-29T00:06:25.362Z,1018.34
2018-01-29T00:07:25.328Z,1018.28
2018-01-29T00:08:25.286Z,1018.27
2018-01-29T00:09:25.242Z,1018.30
2018-01-29T00:10:25.206Z,1018.41
2018-01-29T00:11:25.167Z,1018.36
2018-01-29T00:12:25.129Z,1018.31
2018-01-29T00:13:25.088Z,1018.25
2018-01-29T00:14:25.049Z,1018.33
2018-01-29T00:15:25.020Z,1018.32
2018-01-29T00:16:24.984Z,1018.30
2018-01-29T00:17:25.010Z,1018.23
2018-01-29T00:18:24.899Z,1018.30
2018-01-29T00:19:24.858Z,1018.31
2018-01-29T00:20:24.818Z,1018.24
2018-01-29T00:21:24.781Z,1018.29
2018-01-29T00:22:24.745Z,1018.22
2018-01-29T00:23:24.707Z,1018.21
2018-01-29T00:24:24.661Z,1018.21
2018-01-29T00:25:24.625Z,1018.13
2018-01-29T00:26:24.590Z,1018.14
2018-01-29T00:27:24.587Z,1018.17
2018-01-29T00:28:24.513Z,1018.13
2018-01-29T00:29:24.469Z,1018.13
2018-01-29T00:30:24.449Z,1018.18
2018-01-29T00:31:24.402Z,1018.15
2018-01-29T00:32:24.354Z,1018.18
2018-01-29T00:33:24.321Z,1018.23
2018-01-29T00:34:24.278Z,1018.17
2018-01-29T00:35:24.241Z,1018.15
2018-01-29T00:36:24.212Z,1018.20
2018-01-29T00:37:24.164Z,1018.17
2018-01-29T00:38:24.132Z,1018.18
2018-01-29T00:39:24.083Z,1018.25
2018-01-29T00:40:24.060Z,1018.05
2018-01-29T00:41:24.015Z,1018.19
2018-01-29T00:42:23.970Z,1018.09
2018-01-29T00:43:23.930Z,1018.10
2018-01-29T00:44:23.896Z,1018.15
2018-01-29T00:45:23.852Z,1018.16
2018-01-29T00:46:23.816Z,1018.19
2018-01-29T00:47:23.776Z,1018.16
2018-01-29T00:48:23.737Z,1018.08
2018-01-29T00:49:23.702Z,1018.14
2018-01-29T00:50:23.662Z,1018.18
2018-01-29T00:51:23.631Z,1018.18
2018-01-29T00:52:23.594Z,1018.19
2018-01-29T00:53:23.551Z,1018.10
2018-01-29T00:54:23.512Z,1018.10
2018-01-29T00:55:23.468Z,1018.12
2018-01-29T00:56:23.431Z,1018.11
2018-01-29T00:57:23.391Z,1018.10
2018-01-29T00:58:23.356Z,1018.13
2018-01-29T00:59:23.317Z,1018.14
2018-01-29T01:00:23.284Z,1018.12
2018-01-29T01:01:23.236Z,1018.10
2018-01-29T01:02:23.202Z,1018.15
2018-01-29T01:03:23.161Z,1018.11
2018-01-29T01:04:23.122Z,1018.15
2018-01-29T01:05:23.094Z,1018.12
2018-01-29T01:06:23.050Z,1018.25
2018-01-29T01:07:23.008Z,1018.11
2018-01-29T01:08:22.971Z,1018.19
2018-01-29T01:09:22.937Z,1018.26
2018-01-29T01:10:22.891Z,1018.24
2018-01-29T01:11:22.852Z,1018.25
2018-01-29T01:12:22.812Z,1018.26
2018-01-29T01:13:22.776Z,1018.23
2018-01-29T01:14:22.736Z,1018.28
2018-01-29T01:15:22.705Z,1018.30
2018-01-29T01:16:22.661Z,1018.28
2018-01-29T01:17:22.622Z,1018.18
2018-01-29T01:18:22.585Z,1018.20
2018-01-29T01:19:22.546Z,1018.22
2018-01-29T01:20:22.506Z,1018.20
2018-01-29T01:21:22.492Z,1018.23
2018-01-29T01:22:22.429Z,1018.20
2018-01-29T01:23:22.392Z,1018.26
2018-01-29T01:24:22.352Z,1018.18
2018-01-29T01:25:22.322Z,1018.19
2018-01-29T01:26:22.274Z,1018.19
2018-01-29T01:27:22.236Z,1018.21
2018-01-29T01:28:22.197Z,1018.14
2018-01-29T01:29:22.159Z,1018.13
2018-01-29T01:30:22.120Z,1018.12
2018-01-29T01:31:22.085Z,1018.18
2018-01-29T01:32:22.044Z,1018.18
2018-01-29T01:33:22.025Z,1018.16
2018-01-29T01:34:21.967Z,1018.19
2018-01-29T01:35:21.929Z,1018.18
2018-01-29T01:36:21.890Z,1018.13
2018-01-29T01:37:21.876Z,1018.18
2018-01-29T01:38:21.814Z,1018.10
2018-01-29T01:39:21.800Z,1018.18
2018-01-29T01:40:21.743Z,1018.14
2018-01-29T01:41:21.727Z,1018.20
2018-01-29T01:42:21.660Z,1018.18
2018-01-29T01:43:21.634Z,1018.20
2018-01-29T01:44:21.581Z,1018.18
2018-01-29T01:45:21.551Z,1018.21
2018-01-29T01:46:21.520Z,1018.09
2018-01-29T01:47:21.482Z,1018.17
2018-01-29T01:48:21.438Z,1018.07
2018-01-29T01:49:21.396Z,1018.15
2018-01-29T01:50:21.371Z,1018.09
2018-01-29T01:51:21.353Z,1018.11
2018-01-29T01:52:21.316Z,1018.09
2018-01-29T01:53:21.243Z,1018.12
2018-01-29T01:54:21.198Z,1018.12
2018-01-29T01:55:21.167Z,1018.15
2018-01-29T01:56:21.137Z,1018.07
2018-01-29T01:57:21.084Z,1018.08
2018-01-29T01:58:21.053Z,1018.08
2018-01-29T01:59:21.020Z,1018.10
2018-01-29T02:00:20.968Z,1018.07
2018-01-29T02:01:20.929Z,1018.06
2018-01-29T02:02:20.982Z,1018.01
2018-01-29T02:03:20.863Z,1018.06
2018-01-29T02:04:20.829Z,1018.05
2018-01-29T02:05:20.790Z,1018.06
2018-01-29T02:06:20.738Z,1018.06
2018-01-29T02:07:20.706Z,1017.94
2018-01-29T02:08:20.666Z,1018.00
2018-01-29T02:09:20.620Z,1018.04
2018-01-29T02:10:20.583Z,1018.08
2018-01-29T02:11:20.555Z,1018.14
2018-01-29T02:12:20.522Z,1018.01
2018-01-29T02:13:20.467Z,1018.11
2018-01-29T02:14:20.429Z,1017.98
2018-01-29T02:15:20.394Z,1018.10
2018-01-29T02:16:20.359Z,1018.08
2018-01-29T02:17:20.319Z,1018.02
2018-01-29T02:18:20.275Z,1017.99
2018-01-29T02:19:20.236Z,1017.95
2018-01-29T02:20:20.200Z,1017.94
2018-01-29T02:21:20.168Z,1017.95
2018-01-29T02:22:20.136Z,1017.98
2018-01-29T02:23:20.091Z,1017.93
2018-01-29T02:24:20.062Z,1017.96
2018-01-29T02:25:20.005Z,1017.89
2018-01-29T02:26:19.968Z,1017.92
2018-01-29T02:27:19.937Z,1017.86
2018-01-29T02:28:19.893Z,1017.85
2018-01-29T02:29:19.853Z,1017.81
2018-01-29T02:30:19.816Z,1017.76
2018-01-29T02:31:19.798Z,1017.86
2018-01-29T02:32:19.745Z,1017.81
2018-01-29T02:33:19.700Z,1017.77
2018-01-29T02:34:19.662Z,1017.86
2018-01-29T02:35:19.662Z,1017.85
2018-01-29T02:36:19.584Z,1017.77
2018-01-29T02:37:19.549Z,1017.80
2018-01-29T02:38:19.508Z,1017.79
2018-01-29T02:39:19.473Z,1017.74
2018-01-29T02:40:19.439Z,1017.73
2018-01-29T02:41:19.399Z,1017.77
2018-01-29T02:42:19.354Z,1017.59
2018-01-29T02:43:19.315Z,1017.56
2018-01-29T02:44:19.278Z,1017.58
2018-01-29T02:45:19.239Z,1017.65
2018-01-29T02:46:19.201Z,1017.63
2018-01-29T02:47:19.169Z,1017.52
2018-01-29T02:48:19.134Z,1017.61
2018-01-29T02:49:19.086Z,1017.43
2018-01-29T02:50:19.047Z,1017.50
2018-01-29T02:51:19.016Z,1017.49
2018-01-29T02:52:18.971Z,1017.46
2018-01-29T02:53:18.934Z,1017.50
2018-01-29T02:54:18.902Z,1017.45
2018-01-29T02:55:18.858Z,1017.42
2018-01-29T02:56:18.817Z,1017.40
2018-01-29T02:57:18.782Z,1017.43
2018-01-29T02:58:18.743Z,1017.47
2018-01-29T02:59:18.706Z,1017.51
2018-01-29T03:00:18.666Z,1017.42
2018-01-29T03:01:18.626Z,1017.49
2018-01-29T03:02:18.588Z,1017.43
2018-01-29T03:03:18.551Z,1017.48
2018-01-29T03:04:18.514Z,1017.40
2018-01-29T03:05:18.477Z,1017.34
2018-01-29T03:06:18.440Z,1017.44
2018-01-29T03:07:18.408Z,1017.44
2018-01-29T03:08:18.357Z,1017.43
2018-01-29T03:09:18.319Z,1017.52
2018-01-29T03:10:18.283Z,1017.42
2018-01-29T03:11:18.250Z,1017.35
2018-01-29T03:12:18.203Z,1017.44
2018-01-29T03:13:18.164Z,1017.39
2018-01-29T03:14:18.131Z,1017.44
2018-01-29T03:15:18.103Z,1017.36
2018-01-29T03:16:18.054Z,1017.37
2018-01-29T03:17:18.014Z,1017.36
2018-01-29T03:18:17.975Z,1017.32
2018-01-29T03:19:17.946Z,1017.37
2018-01-29T03:20:17.899Z,1017.39
2018-01-29T03:21:17.861Z,1017.35
2018-01-29T03:22:17.822Z,1017.34
2018-01-29T03:23:17.787Z,1017.35
2018-01-29T03:24:17.763Z,1017.35
2018-01-29T03:25:17.708Z,1017.35
2018-01-29T03:26:17.671Z,1017.39
2018-01-29T03:27:17.639Z,1017.33
2018-01-29T03:28:17.591Z,1017.34
2018-01-29T03:29:17.568Z,1017.39
2018-01-29T03:30:17.526Z,1017.21
2018-01-29T03:31:17.482Z,1017.37
2018-01-29T03:32:17.441Z,1017.30
2018-01-29T03:33:17.403Z,1017.31
2018-01-29T03:34:17.365Z,1017.31
2018-01-29T03:35:17.339Z,1017.24
2018-01-29T03:36:17.292Z,1017.28
2018-01-29T03:37:17.250Z,1017.23
2018-01-29T03:38:17.224Z,1017.19
2018-01-29T03:39:17.184Z,1017.28
2018-01-29T03:40:17.152Z,1017.22
2018-01-29T03:41:17.153Z,1017.14
2018-01-29T03:42:17.065Z,1017.25
2018-01-29T03:43:17.029Z,1017.18
2018-01-29T03:44:16.988Z,1017.13
2018-01-29T03:45:16.945Z,1017.18
2018-01-29T03:46:16.911Z,1017.12
2018-01-29T03:47:16.875Z,1017.13
2018-01-29T03:48:16.849Z,1017.10
2018-01-29T03:49:16.803Z,1017.14
2018-01-29T03:50:16.757Z,1017.23
2018-01-29T03:51:16.719Z,1017.13
2018-01-29T03:52:16.687Z,1017.05
2018-01-29T03:53:16.641Z,1017.08
2018-01-29T03:54:16.609Z,1017.05
2018-01-29T03:55:16.565Z,1017.00
2018-01-29T03:56:16.527Z,1017.04
2018-01-29T03:57:16.489Z,1017.11
2018-01-29T03:58:16.464Z,1017.09
2018-01-29T03:59:16.420Z,1017.14
2018-01-29T04:00:16.379Z,1017.07
2018-01-29T04:01:16.340Z,1017.08
2018-01-29T04:02:16.331Z,1017.10
2018-01-29T04:03:16.267Z,1017.09
2018-01-29T04:04:16.226Z,1017.03
2018-01-29T04:05:16.184Z,1017.03
2018-01-29T04:06:16.150Z,1017.03
2018-01-29T04:07:16.118Z,1017.04
2018-01-29T04:08:16.071Z,1016.96
2018-01-29T04:09:16.055Z,1016.99
2018-01-29T04:10:15.996Z,1016.99
2018-01-29T04:11:15.959Z,1016.96
2018-01-29T04:12:15.923Z,1016.99
2018-01-29T04:13:15.894Z,1017.05
2018-01-29T04:14:15.856Z,1017.06
2018-01-29T04:15:15.811Z,1017.02
2018-01-29T04:16:15.818Z,1016.92
2018-01-29T04:17:15.736Z,1017.03
2018-01-29T04:18:15.693Z,1017.04
2018-01-29T04:19:15.653Z,1017.02
2018-01-29T04:20:15.621Z,1017.04
2018-01-29T04:21:15.598Z,1017.03
2018-01-29T04:22:15.568Z,1017.00
2018-01-29T04:23:15.512Z,1016.96
2018-01-29T04:24:15.489Z,1016.98
2018-01-29T04:25:15.431Z,1016.96
2018-01-29T04:26:15.390Z,1016.78
2018-01-29T04:27:15.351Z,1016.94
2018-01-29T04:28:15.348Z,1016.91
2018-01-29T04:29:15.274Z,1016.96
2018-01-29T04:30:15.247Z,1016.92
2018-01-29T04:31:15.211Z,1016.84
2018-01-29T04:32:15.190Z,1016.93
2018-01-29T04:33:15.120Z,1016.94
2018-01-29T04:34:15.112Z,1016.95
2018-01-29T04:35:15.048Z,1016.92
2018-01-29T04:36:15.049Z,1016.90
2018-01-29T04:37:14.983Z,1016.95
2018-01-29T04:38:14.951Z,1016.86
2018-01-29T04:39:14.896Z,1016.90
2018-01-29T04:40:14.860Z,1016.85
2018-01-29T04:41:14.832Z,1016.72
2018-01-29T04:42:14.784Z,1016.82
2018-01-29T04:43:14.749Z,1016.78
2018-01-29T04:44:14.708Z,1016.83
2018-01-29T04:45:14.667Z,1016.74
2018-01-29T04:46:14.630Z,1016.69
2018-01-29T04:47:14.602Z,1016.79
2018-01-29T04:48:14.561Z,1016.76
2018-01-29T04:49:14.516Z,1016.75
2018-01-29T04:50:14.477Z,1016.73
2018-01-29T04:51:14.439Z,1016.73
2018-01-29T04:52:14.405Z,1016.80
2018-01-29T04:53:14.366Z,1016.80
2018-01-29T04:54:14.328Z,1016.79
2018-01-29T04:55:14.288Z,1016.71
2018-01-29T04:56:14.253Z,1016.76
2018-01-29T04:57:14.220Z,1016.74
2018-01-29T04:58:14.175Z,1016.69
2018-01-29T04:59:14.137Z,1016.72
2018-01-29T05:00:14.099Z,1016.74
2018-01-29T05:01:14.060Z,1016.66
2018-01-29T05:02:14.023Z,1016.61
2018-01-29T05:03:13.985Z,1016.56
2018-01-29T05:04:13.949Z,1016.61
2018-01-29T05:05:13.918Z,1016.45
2018-01-29T05:06:13.875Z,1016.53
2018-01-29T05:07:13.834Z,1016.51
2018-01-29T05:08:13.803Z,1016.61
2018-01-29T05:09:13.759Z,1016.46
2018-01-29T05:10:13.719Z,1016.55
2018-01-29T05:11:13.683Z,1016.52
2018-01-29T05:12:13.650Z,1016.51
2018-01-29T05:13:13.604Z,1016.47
2018-01-29T05:14:13.568Z,1016.49
2018-01-29T05:15:13.528Z,1016.53
2018-01-29T05:16:13.495Z,1016.40
2018-01-29T05:17:13.452Z,1016.47
2018-01-29T05:18:13.415Z,1016.52
2018-01-29T05:19:13.379Z,1016.53
2018-01-29T05:20:13.340Z,1016.43
2018-01-29T05:21:13.308Z,1016.44
2018-01-29T05:22:13.265Z,1016.41
2018-01-29T05:23:13.228Z,1016.44
2018-01-29T05:24:13.187Z,1016.44
2018-01-29T05:25:13.146Z,1016.46
2018-01-29T05:26:13.111Z,1016.42
2018-01-29T05:27:13.073Z,1016.37
2018-01-29T05:28:13.050Z,1016.36
2018-01-29T05:29:12.994Z,1016.41
2018-01-29T05:30:12.956Z,1016.43
2018-01-29T05:31:12.920Z,1016.39
2018-01-29T05:32:12.888Z,1016.37
2018-01-29T05:33:12.846Z,1016.34
2018-01-29T05:34:12.808Z,1016.37
2018-01-29T05:35:12.775Z,1016.42
2018-01-29T05:36:12.729Z,1016.40
2018-01-29T05:37:12.692Z,1016.43
2018-01-29T05:38:12.654Z,1016.42
2018-01-29T05:39:12.616Z,1016.40
2018-01-29T05:40:12.590Z,1016.41
2018-01-29T05:41:12.538Z,1016.47
2018-01-29T05:42:12.508Z,1016.47
2018-01-29T05:43:12.467Z,1016.52
2018-01-29T05:44:12.424Z,1016.41
2018-01-29T05:45:12.385Z,1016.50
2018-01-29T05:46:12.348Z,1016.44
2018-01-29T05:47:12.309Z,1016.43
2018-01-29T05:48:12.292Z,1016.45
2018-01-29T05:49:12.235Z,1016.51
2018-01-29T05:50:12.196Z,1016.57
2018-01-29T05:51:12.158Z,1016.58
2018-01-29T05:52:12.121Z,1016.57
2018-01-29T05:53:12.093Z,1016.55
2018-01-29T05:54:12.044Z,1016.41
2018-01-29T05:55:12.011Z,1016.48
2018-01-29T05:56:11.975Z,1016.52
2018-01-29T05:57:11.935Z,1016.59
2018-01-29T05:58:11.895Z,1016.55
2018-01-29T05:59:11.854Z,1016.50
2018-01-29T06:00:11.816Z,1016.50
2018-01-29T06:01:11.778Z,1016.52
2018-01-29T06:02:11.765Z,1016.52
2018-01-29T06:03:11.702Z,1016.51
2018-01-29T06:04:11.708Z,1016.48
2018-01-29T06:05:11.633Z,1016.43
2018-01-29T06:06:11.591Z,1016.49
2018-01-29T06:07:11.547Z,1016.47
2018-01-29T06:08:11.514Z,1016.44
2018-01-29T06:09:11.478Z,1016.49
2018-01-29T06:10:11.438Z,1016.51
2018-01-29T06:11:11.406Z,1016.51
2018-01-29T06:12:11.368Z,1016.53
2018-01-29T06:13:11.322Z,1016.45
2018-01-29T06:14:11.287Z,1016.50
2018-01-29T06:15:11.250Z,1016.48
2018-01-29T06:16:11.209Z,1016.46
2018-01-29T06:17:11.177Z,1016.37
2018-01-29T06:18:11.135Z,1016.45
2018-01-29T06:19:11.104Z,1016.44
2018-01-29T06:20:11.068Z,1016.40
2018-01-29T06:21:11.016Z,1016.34
2018-01-29T06:22:10.979Z,1016.37
2018-01-29T06:23:10.944Z,1016.33
2018-01-29T06:24:10.912Z,1016.37
2018-01-29T06:25:10.867Z,1016.28
2018-01-29T06:26:10.832Z,1016.32
2018-01-29T06:27:10.796Z,1016.29
2018-01-29T06:28:10.753Z,1016.34
2018-01-29T06:29:10.718Z,1016.30
2018-01-29T06:30:10.711Z,1016.19
2018-01-29T06:31:10.644Z,1016.27
2018-01-29T06:32:10.604Z,1016.20
2018-01-29T06:33:10.569Z,1016.25
2018-01-29T06:34:10.535Z,1016.26
2018-01-29T06:35:10.494Z,1016.21
2018-01-29T06:36:10.457Z,1016.16
2018-01-29T06:37:10.414Z,1016.23
2018-01-29T06:38:10.379Z,1016.32
2018-01-29T06:39:10.339Z,1016.29
2018-01-29T06:40:10.302Z,1016.27
2018-01-29T06:41:10.260Z,1016.18
2018-01-29T06:42:10.221Z,1016.24
2018-01-29T06:43:10.185Z,1016.09
2018-01-29T06:44:10.150Z,1016.13
2018-01-29T06:45:10.118Z,1016.21
2018-01-29T06:46:10.073Z,1016.16
2018-01-29T06:47:10.038Z,1016.20
2018-01-29T06:48:09.996Z,1016.24
2018-01-29T06:49:09.991Z,1016.18
2018-01-29T06:50:09.923Z,1016.23
2018-01-29T06:51:09.883Z,1016.24
2018-01-29T06:52:09.847Z,1016.30
2018-01-29T06:53:09.813Z,1016.35
2018-01-29T06:54:09.776Z,1016.29
2018-01-29T06:55:09.731Z,1016.21
2018-01-29T06:56:09.734Z,1016.26
2018-01-29T06:57:09.662Z,1016.27
2018-01-29T06:58:09.641Z,1016.17
2018-01-29T06:59:09.584Z,1016.27
2018-01-29T07:00:09.555Z,1016.22
2018-01-29T07:01:09.512Z,1016.28
2018-01-29T07:02:09.466Z,1016.26
2018-01-29T07:03:09.434Z,1016.24
2018-01-29T07:04:09.401Z,1016.03
2018-01-29T07:05:09.351Z,1016.14
2018-01-29T07:06:09.388Z,1016.13
2018-01-29T07:07:09.280Z,1016.17
2018-01-29T07:08:09.265Z,1016.19
2018-01-29T07:09:09.202Z,1016.12
2018-01-29T07:10:09.186Z,1016.17
2018-01-29T07:11:09.131Z,1016.10
2018-01-29T07:12:09.657Z,1016.00
2018-01-29T07:13:09.112Z,1016.00
2018-01-29T07:14:09.037Z,1015.96
2018-01-29T07:15:08.975Z,1015.96
2018-01-29T07:16:08.972Z,1016.03
2018-01-29T07:17:08.901Z,1015.83
2018-01-29T07:18:08.868Z,1015.87
2018-01-29T07:19:08.901Z,1015.91
2018-01-29T07:20:08.804Z,1015.89
2018-01-29T07:21:08.773Z,1015.88
2018-01-29T07:22:08.717Z,1015.88
2018-01-29T07:23:08.754Z,1015.85
2018-01-29T07:24:08.642Z,1015.87
2018-01-29T07:25:08.601Z,1015.86
2018-01-29T07:26:08.559Z,1015.94
2018-01-29T07:27:08.522Z,1015.80
2018-01-29T07:28:08.499Z,1015.73
2018-01-29T07:29:08.472Z,1015.72
2018-01-29T07:30:08.413Z,1015.78
2018-01-29T07:31:08.392Z,1015.82
2018-01-29T07:32:08.346Z,1015.71
2018-01-29T07:33:08.293Z,1015.80
2018-01-29T07:34:08.257Z,1015.76
2018-01-29T07:35:08.219Z,1015.65
2018-01-29T07:36:08.183Z,1015.70
2018-01-29T07:37:08.192Z,1015.64
2018-01-29T07:38:08.117Z,1015.59
2018-01-29T07:39:08.080Z,1015.67
2018-01-29T07:40:09.571Z,1015.68
2018-01-29T07:41:07.994Z,1015.68
2018-01-29T07:42:07.955Z,1015.58
2018-01-29T07:43:07.921Z,1015.67
2018-01-29T07:44:07.879Z,1015.52
2018-01-29T07:45:07.850Z,1015.55
2018-01-29T07:46:07.804Z,1015.61
2018-01-29T07:47:07.768Z,1015.50
2018-01-29T07:48:07.737Z,1015.60
2018-01-29T07:49:07.692Z,1015.63
2018-01-29T07:50:07.654Z,1015.64
2018-01-29T07:51:07.617Z,1015.57
2018-01-29T07:52:07.577Z,1015.57
2018-01-29T07:53:07.541Z,1015.54
2018-01-29T07:54:07.511Z,1015.55
2018-01-29T07:55:07.462Z,1015.59
2018-01-29T07:56:07.424Z,1015.54
2018-01-29T07:57:07.397Z,1015.54
2018-01-29T07:58:07.356Z,1015.66
2018-01-29T07:59:07.318Z,1015.63
2018-01-29T08:00:07.276Z,1015.64
2018-01-29T08:01:07.241Z,1015.67
2018-01-29T08:02:07.199Z,1015.56
2018-01-29T08:03:07.161Z,1015.50
2018-01-29T08:04:07.124Z,1015.52
2018-01-29T08:05:07.093Z,1015.40
2018-01-29T08:06:07.055Z,1015.51
2018-01-29T08:07:07.013Z,1015.46
2018-01-29T08:08:06.988Z,1015.50
2018-01-29T08:09:06.938Z,1015.50
2018-01-29T08:10:06.897Z,1015.38
2018-01-29T08:11:06.864Z,1015.36
2018-01-29T08:12:06.841Z,1015.36
2018-01-29T08:13:06.786Z,1015.33
2018-01-29T08:14:06.752Z,1015.39
2018-01-29T08:15:06.722Z,1015.23
2018-01-29T08:16:06.680Z,1015.22
2018-01-29T08:17:06.642Z,1015.18
2018-01-29T08:18:06.602Z,1015.31
2018-01-29T08:19:06.569Z,1015.19
2018-01-29T08:20:06.526Z,1015.31
2018-01-29T08:21:06.490Z,1015.28
2018-01-29T08:22:06.451Z,1015.21
2018-01-29T08:23:06.444Z,1015.23
2018-01-29T08:24:06.381Z,1015.28
2018-01-29T08:25:06.377Z,1015.39
2018-01-29T08:26:06.304Z,1015.22
2018-01-29T08:27:06.262Z,1015.28
2018-01-29T08:28:06.225Z,1015.22
2018-01-29T08:29:06.184Z,1015.24
2018-01-29T08:30:06.148Z,1015.23
2018-01-29T08:31:06.113Z,1015.24
2018-01-29T08:32:06.074Z,1015.27
2018-01-29T08:33:06.036Z,1015.20
2018-01-29T08:34:06.012Z,1015.22
2018-01-29T08:35:06.033Z,1015.15
2018-01-29T08:36:05.928Z,1015.21
2018-01-29T08:37:05.885Z,1015.17
2018-01-29T08:38:05.871Z,1015.14
2018-01-29T08:39:05.813Z,1015.10
2018-01-29T08:40:05.779Z,1015.06
2018-01-29T08:41:05.736Z,1015.06
2018-01-29T08:42:05.698Z,1015.11
2018-01-29T08:43:05.666Z,1015.16
2018-01-29T08:44:05.627Z,1015.24
2018-01-29T08:45:05.615Z,1015.19
2018-01-29T08:46:05.552Z,1015.15
2018-01-29T08:47:05.518Z,1015.10
2018-01-29T08:48:05.479Z,1015.18
2018-01-29T08:49:05.443Z,1015.14
2018-01-29T08:50:05.403Z,1015.05
2018-01-29T08:51:05.361Z,1015.17
2018-01-29T08:52:05.328Z,1015.11
2018-01-29T08:53:05.381Z,1015.09
2018-01-29T08:54:05.252Z,1015.06
2018-01-29T08:55:05.217Z,1015.06
2018-01-29T08:56:05.197Z,1014.93
2018-01-29T08:57:05.137Z,1015.02
2018-01-29T08:58:05.098Z,1015.02
2018-01-29T08:59:05.067Z,1014.98
2018-01-29T09:00:05.022Z,1014.93
2018-01-29T09:01:04.986Z,1014.94
2018-01-29T09:02:04.949Z,1014.90
2018-01-29T09:03:04.918Z,1015.01
2018-01-29T09:04:04.906Z,1014.88
2018-01-29T09:05:04.892Z,1014.95
2018-01-29T09:06:04.799Z,1014.82
2018-01-29T09:07:04.764Z,1014.88
2018-01-29T09:08:04.727Z,1014.89
2018-01-29T09:09:04.685Z,1014.87
2018-01-29T09:10:04.674Z,1014.90
2018-01-29T09:11:04.616Z,1014.96
2018-01-29T09:12:04.576Z,1014.87
2018-01-29T09:13:04.537Z,1014.86
2018-01-29T09:14:04.498Z,1014.82
2018-01-29T09:15:04.473Z,1014.81
2018-01-29T09:16:04.424Z,1014.81
2018-01-29T09:17:04.388Z,1014.80
2018-01-29T09:18:04.350Z,1014.81
2018-01-29T09:19:04.338Z,1014.69
2018-01-29T09:20:04.321Z,1014.73
2018-01-29T09:21:04.251Z,1014.80
2018-01-29T09:22:04.220Z,1014.74
2018-01-29T09:23:04.173Z,1014.74
2018-01-29T09:24:04.132Z,1014.73
2018-01-29T09:25:04.091Z,1014.73
2018-01-29T09:26:04.059Z,1014.60
2018-01-29T09:27:04.014Z,1014.67
2018-01-29T09:28:03.981Z,1014.61
2018-01-29T09:29:03.945Z,1014.61
2018-01-29T09:30:03.904Z,1014.70
2018-01-29T09:31:03.883Z,1014.71
2018-01-29T09:32:03.862Z,1014.79
2018-01-29T09:33:03.791Z,1014.78
2018-01-29T09:34:03.760Z,1014.71
2018-01-29T09:35:03.719Z,1014.69
2018-01-29T09:36:03.678Z,1014.70
2018-01-29T09:37:03.640Z,1014.80
2018-01-29T09:38:03.609Z,1014.77
2018-01-29T09:39:03.574Z,1014.75
2018-01-29T09:40:03.532Z,1014.74
2018-01-29T09:41:03.503Z,1014.76
2018-01-29T09:42:03.475Z,1014.77
2018-01-29T09:43:03.422Z,1014.74
2018-01-29T09:44:03.419Z,1014.68
2018-01-29T09:45:03.349Z,1014.83
2018-01-29T09:46:03.321Z,1014.71
2018-01-29T09:47:03.278Z,1014.86
2018-01-29T09:48:03.247Z,1014.79
2018-01-29T09:49:03.227Z,1014.85
2018-01-29T09:50:03.163Z,1014.81
2018-01-29T09:51:03.134Z,1014.78
2018-01-29T09:52:03.090Z,1014.92
2018-01-29T09:53:03.054Z,1014.88
2018-01-29T09:54:03.029Z,1014.90
2018-01-29T09:55:02.980Z,1014.85
2018-01-29T09:56:02.974Z,1014.94
2018-01-29T09:57:02.932Z,1014.86
2018-01-29T09:58:02.901Z,1014.99
2018-01-29T09:59:02.837Z,1015.02
2018-01-29T10:00:02.791Z,1015.00
2018-01-29T10:01:02.753Z,1014.97
2018-01-29T10:02:02.721Z,1014.93
2018-01-29T10:03:02.686Z,1014.95
2018-01-29T10:04:02.659Z,1014.96
2018-01-29T10:05:02.605Z,1015.01
2018-01-29T10:06:02.575Z,1014.96
2018-01-29T10:07:02.557Z,1015.01
2018-01-29T10:08:02.501Z,1014.98
2018-01-29T10:09:02.452Z,1015.00
2018-01-29T10:10:02.424Z,1014.99
2018-01-29T10:11:02.376Z,1015.02
2018-01-29T10:12:02.372Z,1014.94
2018-01-29T10:13:02.302Z,1014.95
2018-01-29T10:14:02.278Z,1014.90
2018-01-29T10:15:02.230Z,1014.94
2018-01-29T10:16:02.187Z,1014.80
2018-01-29T10:17:02.160Z,1014.79
2018-01-29T10:18:02.125Z,1014.81
2018-01-29T10:19:02.075Z,1014.88
2018-01-29T10:20:02.040Z,1014.80
2018-01-29T10:21:02.091Z,1014.87
2018-01-29T10:22:01.964Z,1014.89
2018-01-29T10:23:01.933Z,1014.81
2018-01-29T10:24:01.893Z,1014.75
2018-01-29T10:25:01.855Z,1014.78
2018-01-29T10:26:01.823Z,1014.77
2018-01-29T10:27:01.778Z,1014.73
2018-01-29T10:28:01.743Z,1014.61
2018-01-29T10:29:01.703Z,1014.83
2018-01-29T10:30:01.687Z,1014.71
2018-01-29T10:31:01.630Z,1014.80
2018-01-29T10:32:01.601Z,1014.71
2018-01-29T10:33:01.551Z,1014.81
2018-01-29T10:34:01.516Z,1014.76
2018-01-29T10:35:01.478Z,1014.68
2018-01-29T10:36:01.443Z,1014.62
2018-01-29T10:37:01.408Z,1014.60
2018-01-29T10:38:01.365Z,1014.57
2018-01-29T10:39:01.329Z,1014.61
2018-01-29T10:40:01.291Z,1014.52
2018-01-29T10:41:01.253Z,1014.62
2018-01-29T10:42:01.224Z,1014.61
2018-01-29T10:43:01.179Z,1014.60
2018-01-29T10:44:01.143Z,1014.62
2018-01-29T10:45:01.107Z,1014.60
2018-01-29T10:46:01.070Z,1014.55
2018-01-29T10:47:01.031Z,1014.51
2018-01-29T10:48:00.995Z,1014.58
2018-01-29T10:49:00.956Z,1014.58
2018-01-29T10:50:00.986Z,1014.62
2018-01-29T10:51:00.882Z,1014.65
2018-01-29T10:52:00.845Z,1014.58
2018-01-29T10:53:00.808Z,1014.52
2018-01-29T10:54:00.778Z,1014.61
2018-01-29T10:55:00.732Z,1014.51
2018-01-29T10:56:00.695Z,1014.49
2018-01-29T10:57:00.673Z,1014.51
2018-01-29T10:58:00.642Z,1014.43
2018-01-29T10:59:00.584Z,1014.50
2018-01-29T11:00:00.549Z,1014.50
2018-01-29T11:01:00.511Z,1014.38
2018-01-29T11:02:00.472Z,1014.46
2018-01-29T11:03:00.447Z,1014.38
2018-01-29T11:04:00.400Z,1014.45
2018-01-29T11:05:00.362Z,1014.47
2018-01-29T11:06:00.325Z,1014.38
2018-01-29T11:07:00.284Z,1014.47
2018-01-29T11:08:00.259Z,1014.49
2018-01-29T11:09:00.210Z,1014.47
2018-01-29T11:10:00.192Z,1014.50
2018-01-29T11:11:00.141Z,1014.32
2018-01-29T11:12:00.103Z,1014.41
2018-01-29T11:13:00.064Z,1014.48
2018-01-29T11:14:00.039Z,1014.46
2018-01-29T11:14:59.988Z,1014.49
2018-01-29T11:16:00.025Z,1014.47
2018-01-29T11:16:59.938Z,1014.36
2018-01-29T11:17:59.877Z,1014.41
2018-01-29T11:18:59.838Z,1014.35
2018-01-29T11:19:59.825Z,1014.47
2018-01-29T11:20:59.774Z,1014.33
2018-01-29T11:21:59.725Z,1014.47
2018-01-29T11:22:59.690Z,1014.42
2018-01-29T11:23:59.655Z,1014.36
2018-01-29T11:24:59.616Z,1014.42
2018-01-29T11:25:59.580Z,1014.50
2018-01-29T11:26:59.540Z,1014.46
2018-01-29T11:27:59.518Z,1014.40
2018-01-29T11:28:59.466Z,1014.39
2018-01-29T11:29:59.429Z,1014.30
2018-01-29T11:30:59.391Z,1014.38
2018-01-29T11:31:59.354Z,1014.35
2018-01-29T11:32:59.349Z,1014.23
2018-01-29T11:33:59.287Z,1014.20
2018-01-29T11:34:59.241Z,1014.14
2018-01-29T11:35:59.205Z,1014.26
2018-01-29T11:36:59.168Z,1014.25
2018-01-29T11:37:59.129Z,1014.27
2018-01-29T11:38:59.090Z,1014.23
2018-01-29T11:39:59.056Z,1014.17
2018-01-29T11:40:59.026Z,1014.33
2018-01-29T11:41:58.995Z,1014.25
2018-01-29T11:42:58.943Z,1014.16
2018-01-29T11:43:58.957Z,1014.10
2018-01-29T11:44:58.876Z,1014.07
2018-01-29T11:45:58.831Z,1014.04
2018-01-29T11:46:58.820Z,1014.08
2018-01-29T11:47:58.763Z,1014.05
2018-01-29T11:48:58.726Z,1014.03
2018-01-29T11:49:58.700Z,1014.02
2018-01-29T11:50:58.649Z,1014.05
2018-01-29T11:51:58.611Z,1014.02
2018-01-29T11:52:58.573Z,1014.04
2018-01-29T11:53:58.534Z,1013.97
2018-01-29T11:54:58.498Z,1013.79
2018-01-29T11:55:58.459Z,1013.89
2018-01-29T11:56:58.421Z,1013.75
2018-01-29T11:57:58.386Z,1013.89
2018-01-29T11:58:58.357Z,1013.89
2018-01-29T11:59:58.319Z,1013.74
2018-01-29T12:00:58.278Z,1013.77
2018-01-29T12:01:58.256Z,1013.81
2018-01-29T12:02:58.201Z,1013.89
2018-01-29T12:03:58.183Z,1013.83
2018-01-29T12:04:58.139Z,1013.85